Cape May Point,

9:58 PM EDT on March 26, 2015 (GMT -0400)
NOS_PORTS Brandywine Shoal Light, DE | | Change Station
CLOSE
Current Station
Personal Weather Station
Location: Cape May Point, NJ
Elevation: 0 ft
Nearby Weather Stations

Elev 0 ft 38.99 °N, 75.11 °W | Updated 6 hours ago

Rain
Rain
54 °F
Feels Like 54 °F
N
10
Wind Variable Wind from SSW
Gusts mph

Today
High -- | Low -- °F
--% Chance of Precip.
Yesterday
High -- | Low -- °F
Precip. -- in
6:54 AM 7:18 PM
Waxing Crescent, 48% visible
Pressure 29.64 in
Visibility 0.8 miles
Clouds Overcast 200 ft
Dew Point 45 °F
Humidity 72%
Rainfall in
Snow Depth Not available.
UV 0 out of 12
Pollen 6.30 out of 12
Air Quality Not available.
Flu Activity Not available.
METAR KWWD 270155Z AUTO 18007KT 3/4SM OVC002 10/08 A2964 RMK AO1

More Conditions Fewer Conditions

Pressure 29.64 in
Visibility 0.8 miles
Clouds Overcast 200 ft
Dew Point 45 °F
Humidity 72%
Rainfall in
Snow Depth Not available.
UV 0 out of 12
Pollen 6.30 out of 12
Air Quality Not available.
Flu Activity Not available.
METAR KWWD 270155Z AUTO 18007KT 3/4SM OVC002 10/08 A2964 RMK AO1

More Conditions Fewer Conditions

10-Day Weather Forecast

Almanac

Astronomy

Mar. 26, 2015 Rise Set
Actual Time
Civil Twilight
Nautical Twilight
Astronomical Twilight
Moon
Length of Visible Light
Length of Day
Tomorrow will be .
, % of the Moon is Illuminated

Today's Extremes

State Highs State Lows

Community

WunderPhotos

Upload Photos

1,808,680 photos uploaded!

WunderBlogs® & News

Nearby

Air Quality

  Air Quality AQ Index Pollutant
Not available.

Snow Depth

Station Depth Elevation

Earthquake Activity

City Distance Mag. Time & Date
Minimum magnitude displayed is 2.5.

Coastal Water Temperatures

Place Temperature

Stations

Nearby Weather Stations

Station Location Temp. Windchill Dew Point Humidity Wind Precip. Elev Updated Type